Terminal Aerodrome Forecast
Issued by NWS Caribou, ME

Home | Current Version | Previous Version | Text Only | Print | Product List | Glossary On
Versions: 1 2 3 4 5 6 7 8 9 10 11 12 13 14 15 16 17 18 19 20
000
FTUS41 KCAR 220100 AAA
TAFBGR
TAF AMD
KBGR 220135Z 2202/2224 06008KT 4SM -RA OVC007
     FM220200 05008KT 3SM -RA OVC007
     FM220900 03012KT 3SM RA OVC010=

USA.gov is the U.S. government's official web portal to all federal, state and local government web resources and services.